Nathrop, Colorado
Current Conditions -  °F | °C
As of 9:35 AM on Wednesday 26 Nov 2014 (Local Time) from KAEJ Reporting Station
Broken Clouds Broken Clouds  
Wind Chill: 41°   Ceiling: 7000
Heat Index: 45°   Visibility: 10mi
Dew Point: 21°   Wind: 7mph
Humidity: 39%   Direction: 240°WSW
Pressure: 30.24"   Gusts: NA
Location:  38.75°N, 106.08°W
Report Text: KAEJ 261635Z AUTO 24006KT 10SM BKN070 07/M06 A3024 RMK AO2 T00701060
Loading
Personal Weather Stations






























Interactive Weather Map New forecast layout! Learn more

10-Day Weather Forecast

Advertisements
Track Severe Weather on mobile